createdAt,value
2018-06-14T00:00:19.955Z,97021.67
2018-06-14T00:02:49.147Z,97029.33
2018-06-14T00:05:18.579Z,97025.19
2018-06-14T00:07:47.750Z,97033.49
2018-06-14T00:10:17.443Z,97026.84
2018-06-14T00:12:46.644Z,97034.43
2018-06-14T00:15:15.807Z,97032.99
2018-06-14T00:17:45.011Z,97042.13
2018-06-14T00:20:14.605Z,97044.91
2018-06-14T00:22:43.990Z,97042.13
2018-06-14T00:25:13.650Z,97036.13
2018-06-14T00:27:42.801Z,97035.27
2018-06-14T00:30:12.027Z,97037.72
2018-06-14T00:32:41.548Z,97034.83
2018-06-14T00:35:10.731Z,97041.14
2018-06-14T00:37:40.033Z,97037.72
2018-06-14T00:40:09.467Z,97042.13
2018-06-14T00:42:38.575Z,97038.72
2018-06-14T00:45:07.839Z,97031.27
2018-06-14T00:47:37.014Z,97039.28
2018-06-14T00:50:06.816Z,97037.50
2018-06-14T00:52:36.030Z,97042.43
2018-06-14T00:55:05.231Z,97040.61
2018-06-14T00:57:34.386Z,97037.83
2018-06-14T01:00:03.618Z,97043.02
2018-06-14T01:02:34.115Z,97043.98
2018-06-14T01:05:03.334Z,97048.63
2018-06-14T01:07:32.618Z,97035.87
2018-06-14T01:10:02.447Z,97035.27
2018-06-14T01:12:31.599Z,97033.53
2018-06-14T01:15:01.119Z,97034.42
2018-06-14T01:17:30.283Z,97032.04
2018-06-14T01:19:59.515Z,97035.97
2018-06-14T01:22:28.694Z,97040.52
2018-06-14T01:24:58.157Z,97039.33
2018-06-14T01:27:27.299Z,97043.34
2018-06-14T01:29:56.645Z,97030.77
2018-06-14T01:32:25.787Z,97030.00
2018-06-14T01:34:54.977Z,97030.47
2018-06-14T01:37:35.317Z,97025.42
2018-06-14T01:40:04.547Z,97032.02
2018-06-14T01:42:33.718Z,97028.30
2018-06-14T01:45:02.946Z,97030.88
2018-06-14T01:47:32.999Z,97023.56
2018-06-14T01:50:02.416Z,97024.42
2018-06-14T01:52:31.678Z,97017.42
2018-06-14T01:55:00.873Z,97020.19
2018-06-14T01:57:30.025Z,97014.67
2018-06-14T01:59:59.402Z,97016.48
2018-06-14T02:02:29.026Z,97015.82
2018-06-14T02:04:58.239Z,97014.96
2018-06-14T02:07:27.403Z,97014.36
2018-06-14T02:09:56.910Z,97010.37
2018-06-14T02:12:26.190Z,97005.37
2018-06-14T02:14:55.387Z,97007.30
2018-06-14T02:17:24.835Z,97017.03
2018-06-14T02:19:54.040Z,97020.00
2018-06-14T02:22:23.666Z,97016.39
2018-06-14T02:24:52.850Z,97019.89
2018-06-14T02:27:22.035Z,97030.28
2018-06-14T02:29:51.354Z,97024.23
2018-06-14T02:32:20.762Z,97032.87
2018-06-14T02:34:49.981Z,97021.00
2018-06-14T02:37:19.150Z,97018.63
2018-06-14T02:39:48.334Z,97016.27
2018-06-14T02:42:18.243Z,97026.50
2018-06-14T02:44:47.529Z,97025.27
2018-06-14T02:47:16.636Z,97023.36
2018-06-14T02:49:45.811Z,97029.42
2018-06-14T02:52:15.003Z,97034.59
2018-06-14T02:54:44.190Z,97034.55
2018-06-14T02:57:13.387Z,97036.78
2018-06-14T02:59:42.819Z,97029.09
2018-06-14T03:02:12.061Z,97033.17
2018-06-14T03:04:41.551Z,97026.28
2018-06-14T03:07:10.755Z,97023.40
2018-06-14T03:09:39.903Z,97020.66
2018-06-14T03:12:09.406Z,97021.77
2018-06-14T03:14:38.579Z,97021.30
2018-06-14T03:17:07.799Z,97020.27
2018-06-14T03:19:36.958Z,97015.45
2018-06-14T03:22:06.170Z,97009.12
2018-06-14T03:24:35.426Z,97010.24
2018-06-14T03:27:04.627Z,97004.81
2018-06-14T03:29:33.766Z,97000.69
2018-06-14T03:32:03.838Z,97004.24
2018-06-14T03:34:33.578Z,97012.46
2018-06-14T03:37:03.122Z,97005.37
2018-06-14T03:39:32.534Z,97008.14
2018-06-14T03:42:06.959Z,97004.48
2018-06-14T03:44:37.558Z,96999.04
2018-06-14T03:47:07.879Z,97000.23
2018-06-14T03:49:38.395Z,96995.50
2018-06-14T03:52:08.356Z,96994.09
2018-06-14T03:54:37.639Z,96992.98
2018-06-14T03:57:07.829Z,96996.68
2018-06-14T03:59:37.003Z,96995.45
2018-06-14T04:02:06.587Z,96996.33
2018-06-14T04:04:35.786Z,96997.48
2018-06-14T04:07:04.995Z,96993.88
2018-06-14T04:09:34.895Z,96999.02
2018-06-14T04:12:04.251Z,96992.25
2018-06-14T04:14:33.620Z,96990.66
2018-06-14T04:17:03.461Z,96993.69
2018-06-14T04:19:33.082Z,96988.09
2018-06-14T04:22:02.286Z,96990.20
2018-06-14T04:24:31.472Z,96991.86
2018-06-14T04:27:00.678Z,96992.10
2018-06-14T04:29:30.311Z,96996.47
2018-06-14T04:32:00.172Z,96993.97
2018-06-14T04:34:29.336Z,96996.16
2018-06-14T04:36:58.786Z,96997.77
2018-06-14T04:39:29.312Z,96994.95
2018-06-14T04:41:58.823Z,96992.78
2018-06-14T04:44:28.043Z,96988.70
2018-06-14T04:46:57.255Z,96992.73
2018-06-14T04:49:26.835Z,96991.70
2018-06-14T04:51:56.039Z,96986.23
2018-06-14T04:54:25.224Z,96994.46
2018-06-14T04:56:54.411Z,96996.78
2018-06-14T04:59:23.589Z,96992.12
2018-06-14T05:01:53.002Z,96990.52
2018-06-14T05:04:22.198Z,96984.34
2018-06-14T05:06:51.393Z,96981.66
2018-06-14T05:09:20.582Z,96984.31
2018-06-14T05:11:49.772Z,96992.22
2018-06-14T05:14:19.794Z,96994.16
2018-06-14T05:16:49.021Z,96994.23
2018-06-14T05:19:18.275Z,96989.47
2018-06-14T05:21:47.466Z,96984.52
2018-06-14T05:24:16.793Z,96992.91
2018-06-14T05:26:46.215Z,96995.40
2018-06-14T05:29:15.388Z,96990.05
2018-06-14T05:31:45.309Z,96983.34
2018-06-14T05:34:14.467Z,96980.64
2018-06-14T05:36:43.695Z,96984.13
2018-06-14T05:39:13.175Z,96986.26
2018-06-14T05:41:42.386Z,96980.48
2018-06-14T05:44:11.563Z,96977.16
2018-06-14T05:46:40.804Z,96973.45
2018-06-14T05:49:10.227Z,96965.11
2018-06-14T05:51:39.463Z,96958.01
2018-06-14T05:54:08.655Z,96961.11
2018-06-14T05:56:37.855Z,96959.70
2018-06-14T05:59:07.027Z,96966.06
2018-06-14T06:01:36.404Z,96967.16
2018-06-14T06:04:05.751Z,96960.37
2018-06-14T06:06:34.987Z,96960.59
2018-06-14T06:09:06.408Z,96961.95
2018-06-14T06:11:35.619Z,96963.62
2018-06-14T06:14:04.834Z,96955.83
2018-06-14T06:16:34.351Z,96955.53
2018-06-14T06:19:03.542Z,96964.22
2018-06-14T06:21:32.751Z,96965.48
2018-06-14T06:24:01.955Z,96978.10
2018-06-14T06:26:31.187Z,96970.98
2018-06-14T06:29:00.379Z,96967.83
2018-06-14T06:31:29.891Z,96964.10
2018-06-14T06:33:59.080Z,96963.95
2018-06-14T06:36:28.438Z,96953.55
2018-06-14T06:38:57.908Z,96964.73
2018-06-14T06:41:27.067Z,96951.30
2018-06-14T06:43:56.271Z,96963.00
2018-06-14T06:46:25.467Z,96963.42
2018-06-14T06:48:54.651Z,96962.94
2018-06-14T06:51:23.874Z,96959.27
2018-06-14T06:53:53.058Z,96959.61
2018-06-14T06:56:22.870Z,96959.34
2018-06-14T06:58:52.140Z,96958.80
2018-06-14T07:01:21.302Z,96953.98
2018-06-14T07:03:50.495Z,96962.26
2018-06-14T07:06:19.680Z,96957.28
2018-06-14T07:08:49.395Z,96959.97
2018-06-14T07:11:18.586Z,96955.92
2018-06-14T07:13:47.794Z,96953.64
2018-06-14T07:16:17.382Z,96951.97
2018-06-14T07:18:46.888Z,96954.90
2018-06-14T07:21:16.066Z,96953.61
2018-06-14T07:23:45.301Z,96948.80
2018-06-14T07:26:14.484Z,96960.11
2018-06-14T07:28:43.680Z,96954.14
2018-06-14T07:31:12.891Z,96951.38
2018-06-14T07:33:42.100Z,96953.70
2018-06-14T07:36:11.424Z,96953.28
2018-06-14T07:38:40.620Z,96958.50
2018-06-14T07:41:10.715Z,96964.73
2018-06-14T07:43:39.915Z,96960.52
2018-06-14T07:46:09.106Z,96961.32
2018-06-14T07:48:38.426Z,96956.59
2018-06-14T07:51:07.651Z,96953.33
2018-06-14T07:53:36.918Z,96947.38
2018-06-14T07:56:06.275Z,96957.68
2018-06-14T07:58:35.483Z,96955.53
2018-06-14T08:01:04.664Z,96954.88
2018-06-14T08:03:33.899Z,96956.23
2018-06-14T08:06:03.299Z,96963.97
2018-06-14T08:08:32.524Z,96956.71
2018-06-14T08:11:01.715Z,96960.82
2018-06-14T08:13:31.076Z,96953.33
2018-06-14T08:16:00.769Z,96960.48
2018-06-14T08:18:29.938Z,96946.63
2018-06-14T08:20:59.151Z,96946.50
2018-06-14T08:23:28.355Z,96936.14
2018-06-14T08:25:57.521Z,96934.83
2018-06-14T08:28:26.979Z,96940.27
2018-06-14T08:30:56.186Z,96937.73
2018-06-14T08:33:25.395Z,96938.88
2018-06-14T08:35:54.822Z,96952.78
2018-06-14T08:38:24.042Z,96947.97
2018-06-14T08:40:53.236Z,96949.07
2018-06-14T08:43:22.427Z,96953.55
2018-06-14T08:45:51.612Z,96955.81
2018-06-14T08:48:21.928Z,96962.66
2018-06-14T08:50:51.095Z,96956.63
2018-06-14T08:53:20.323Z,96955.90
2018-06-14T08:55:49.500Z,96946.55
2018-06-14T08:58:18.743Z,96937.25
2018-06-14T09:00:48.946Z,96933.79
2018-06-14T09:03:18.195Z,96940.19
2018-06-14T09:05:47.350Z,96937.23
2018-06-14T09:08:16.539Z,96937.87
2018-06-14T09:10:45.759Z,96942.25
2018-06-14T09:13:14.989Z,96947.55
2018-06-14T09:15:44.300Z,96951.86
2018-06-14T09:18:13.626Z,96950.39
2018-06-14T09:20:42.915Z,96943.21
2018-06-14T09:23:12.106Z,96943.55
2018-06-14T09:25:41.448Z,96942.36
2018-06-14T09:28:10.967Z,96937.53
2018-06-14T09:30:40.152Z,96939.18
2018-06-14T09:33:09.363Z,96933.06
2018-06-14T09:35:38.792Z,96917.57
2018-06-14T09:38:08.262Z,96922.77
2018-06-14T09:40:37.471Z,96930.27
2018-06-14T09:43:06.690Z,96927.28
2018-06-14T09:45:36.110Z,96927.66
2018-06-14T09:48:05.334Z,96937.18
2018-06-14T09:50:34.507Z,96936.06
2018-06-14T09:53:05.034Z,96928.73
2018-06-14T09:55:34.443Z,96933.30
2018-06-14T09:58:04.195Z,96941.18
2018-06-14T10:00:33.525Z,96923.70
2018-06-14T10:03:02.737Z,96920.36
2018-06-14T10:05:32.429Z,96922.77
2018-06-14T10:08:01.578Z,96926.34
2018-06-14T10:10:30.770Z,96927.48
2018-06-14T10:13:00.025Z,96927.71
2018-06-14T10:15:29.223Z,96934.72
2018-06-14T10:17:58.928Z,96927.47
2018-06-14T10:20:28.130Z,96923.86
2018-06-14T10:22:57.639Z,96931.34
2018-06-14T10:25:26.841Z,96935.89
2018-06-14T10:27:56.959Z,96930.23
2018-06-14T10:30:26.523Z,96928.29
2018-06-14T10:32:56.446Z,96930.23
2018-06-14T10:35:26.179Z,96929.37
2018-06-14T10:37:55.359Z,96928.20
2018-06-14T10:40:24.613Z,96927.03
2018-06-14T10:42:54.140Z,96930.16
2018-06-14T10:45:23.383Z,96937.37
2018-06-14T10:47:52.771Z,96926.73
2018-06-14T10:50:22.013Z,96927.53
2018-06-14T10:52:51.397Z,96925.44
2018-06-14T10:55:20.894Z,96921.66
2018-06-14T10:57:50.089Z,96924.50
2018-06-14T11:00:19.637Z,96909.54
2018-06-14T11:02:49.080Z,96906.58
2018-06-14T11:05:18.496Z,96909.62
2018-06-14T11:07:47.691Z,96909.95
2018-06-14T11:10:16.896Z,96913.75
2018-06-14T11:12:46.193Z,96907.37
2018-06-14T11:15:15.954Z,96896.79
2018-06-14T11:17:45.111Z,96904.24
2018-06-14T11:20:14.694Z,96901.48
2018-06-14T11:22:44.127Z,96909.30
2018-06-14T11:25:13.332Z,96904.17
2018-06-14T11:27:43.546Z,96895.42
2018-06-14T11:30:12.748Z,96885.38
2018-06-14T11:32:41.930Z,96887.98
2018-06-14T11:35:11.144Z,96893.70
2018-06-14T11:37:40.343Z,96892.66
2018-06-14T11:40:10.079Z,96890.37
2018-06-14T11:42:39.587Z,96888.72
2018-06-14T11:45:08.832Z,96880.75
2018-06-14T11:47:38.023Z,96874.46
2018-06-14T11:50:07.272Z,96867.15
2018-06-14T11:52:36.676Z,96871.88
2018-06-14T11:55:06.147Z,96868.46
2018-06-14T11:57:35.651Z,96868.76
2018-06-14T12:00:04.923Z,96864.73
2018-06-14T12:02:34.165Z,96868.39
2018-06-14T12:05:03.723Z,96865.08
2018-06-14T12:07:32.923Z,96862.16
2018-06-14T12:10:02.153Z,96855.06
2018-06-14T12:12:31.752Z,96850.67
2018-06-14T12:15:02.050Z,96855.75
2018-06-14T12:17:31.219Z,96857.20
2018-06-14T12:20:00.446Z,96853.74
2018-06-14T12:22:29.666Z,96858.88
2018-06-14T12:24:59.207Z,96857.92
2018-06-14T12:27:28.383Z,96854.38
2018-06-14T12:29:58.231Z,96857.19
2018-06-14T12:32:27.443Z,96850.63
2018-06-14T12:34:56.772Z,96846.13
2018-06-14T12:37:26.099Z,96844.73
2018-06-14T12:39:55.330Z,96840.06
2018-06-14T12:42:24.529Z,96841.62
2018-06-14T12:44:54.435Z,96836.34
2018-06-14T12:47:24.644Z,96836.88
2018-06-14T12:49:54.138Z,96834.59
2018-06-14T12:53:52.469Z,96823.96
2018-06-14T12:56:21.701Z,96819.83
2018-06-14T12:58:50.931Z,96832.73
2018-06-14T13:01:20.316Z,96828.56
2018-06-14T13:03:49.505Z,96826.05
2018-06-14T13:06:18.736Z,96818.50
2018-06-14T13:08:47.923Z,96824.44
2018-06-14T13:11:17.415Z,96823.73
2018-06-14T13:13:46.794Z,96818.00
2018-06-14T13:16:16.013Z,96818.75
2018-06-14T13:18:45.427Z,96814.78
2018-06-14T13:21:14.777Z,96810.56
2018-06-14T13:23:43.983Z,96808.29
2018-06-14T13:26:14.235Z,96804.90
2018-06-14T13:28:44.212Z,96811.69
2018-06-14T13:31:13.840Z,96806.41
2018-06-14T13:33:43.028Z,96810.38
2018-06-14T13:36:12.523Z,96808.38
2018-06-14T13:38:41.983Z,96811.75
2018-06-14T13:41:11.207Z,96809.03
2018-06-14T13:43:40.391Z,96810.80
2018-06-14T13:46:10.167Z,96807.05
2018-06-14T13:48:39.883Z,96816.45
2018-06-14T13:51:09.622Z,96815.91
2018-06-14T13:53:38.804Z,96808.59
2018-06-14T13:56:08.351Z,96799.47
2018-06-14T13:58:37.519Z,96802.55
2018-06-14T14:01:07.065Z,96807.49
2018-06-14T14:03:36.584Z,96811.15
2018-06-14T14:06:06.208Z,96814.19
2018-06-14T14:08:35.827Z,96805.96
2018-06-14T14:11:05.039Z,96805.55
2018-06-14T14:13:34.767Z,96811.25
2018-06-14T14:16:03.998Z,96807.79
2018-06-14T14:18:33.594Z,96803.98
2018-06-14T14:21:02.819Z,96811.97
2018-06-14T14:23:32.006Z,96813.30
2018-06-14T14:26:01.220Z,96803.33
2018-06-14T14:28:30.803Z,96807.88
2018-06-14T14:31:00.051Z,96809.61
2018-06-14T14:33:30.488Z,96814.86
2018-06-14T14:36:00.016Z,96812.62
2018-06-14T14:38:29.209Z,96820.85
2018-06-14T14:40:59.139Z,96819.05
2018-06-14T14:43:28.434Z,96815.20
2018-06-14T14:45:57.927Z,96812.35
2018-06-14T14:48:27.102Z,96807.11
2018-06-14T14:50:56.782Z,96813.19
2018-06-14T14:53:25.967Z,96815.50
2018-06-14T14:55:55.927Z,96811.86
2018-06-14T14:58:25.112Z,96818.61
2018-06-14T15:00:54.323Z,96819.34
2018-06-14T15:03:23.502Z,96819.36
2018-06-14T15:05:52.694Z,96823.20
2018-06-14T15:08:22.099Z,96821.53
2018-06-14T15:10:51.586Z,96827.52
2018-06-14T15:13:20.795Z,96826.42
2018-06-14T15:15:49.986Z,96820.66
2018-06-14T15:18:19.402Z,96815.19
2018-06-14T15:20:48.618Z,96818.27
2018-06-14T15:23:17.825Z,96824.22
2018-06-14T15:25:47.395Z,96826.44
2018-06-14T15:28:16.575Z,96830.06
2018-06-14T15:30:45.773Z,96818.94
2018-06-14T15:33:14.960Z,96831.67
2018-06-14T15:35:44.527Z,96831.56
2018-06-14T15:38:13.715Z,96826.47
2018-06-14T15:40:42.895Z,96826.45
2018-06-14T15:43:12.230Z,96821.44
2018-06-14T15:45:41.610Z,96815.05
2018-06-14T15:48:11.206Z,96817.79
2018-06-14T15:50:42.148Z,96818.19
2018-06-14T15:53:11.623Z,96814.56
2018-06-14T15:55:58.491Z,96809.00
2018-06-14T15:58:27.687Z,96812.01
2018-06-14T16:00:57.327Z,96810.93
2018-06-14T16:03:26.551Z,96807.51
2018-06-14T16:05:55.723Z,96807.30
2018-06-14T16:08:24.913Z,96815.96
2018-06-14T16:10:54.285Z,96815.37
2018-06-14T16:13:23.482Z,96817.19
2018-06-14T16:15:52.664Z,96815.03
2018-06-14T16:18:21.871Z,96817.02
2018-06-14T16:20:51.095Z,96811.02
2018-06-14T16:23:20.283Z,96815.45
2018-06-14T16:25:49.465Z,96815.30
2018-06-14T16:28:18.758Z,96809.13
2018-06-14T16:30:47.930Z,96808.86
2018-06-14T16:33:17.140Z,96808.59
2018-06-14T16:35:46.314Z,96806.14
2018-06-14T16:38:16.463Z,96811.67
2018-06-14T16:40:45.658Z,96815.06
2018-06-14T16:43:15.419Z,96814.28
2018-06-14T16:45:44.626Z,96803.43
2018-06-14T16:48:13.879Z,96809.07
2018-06-14T16:50:43.066Z,96809.80
2018-06-14T16:53:12.902Z,96811.91
2018-06-14T16:55:42.089Z,96812.09
2018-06-14T16:58:11.395Z,96816.14
2018-06-14T17:00:40.727Z,96821.17
2018-06-14T17:03:09.946Z,96816.86
2018-06-14T17:05:39.143Z,96823.80
2018-06-14T17:08:08.371Z,96819.65
2018-06-14T17:10:38.019Z,96827.09
2018-06-14T17:13:07.218Z,96823.08
2018-06-14T17:15:36.642Z,96824.77
2018-06-14T17:18:06.274Z,96828.86
2018-06-14T17:20:35.666Z,96835.70
2018-06-14T17:23:04.891Z,96836.54
2018-06-14T17:25:34.038Z,96838.48
2018-06-14T17:28:03.268Z,96841.22
2018-06-14T17:30:32.456Z,96846.49
2018-06-14T17:33:01.647Z,96841.99
2018-06-14T17:35:30.981Z,96840.23
2018-06-14T17:38:00.458Z,96845.73
2018-06-14T17:40:29.695Z,96847.72
2018-06-14T17:42:58.918Z,96851.48
2018-06-14T17:45:28.120Z,96848.44
2018-06-14T17:47:58.471Z,96852.46
2018-06-14T17:50:27.650Z,96850.63
2018-06-14T17:52:57.156Z,96853.35
2018-06-14T17:55:26.455Z,96857.05
2018-06-14T17:57:55.658Z,96856.81
2018-06-14T18:00:24.844Z,96862.64
2018-06-14T18:02:54.758Z,96862.14
2018-06-14T18:05:23.984Z,96865.49
2018-06-14T18:07:53.247Z,96867.03
2018-06-14T18:10:23.775Z,96873.12
2018-06-14T18:12:54.300Z,96886.34
2018-06-14T18:15:23.908Z,96887.98
2018-06-14T18:17:53.915Z,96893.44
2018-06-14T18:20:23.030Z,96891.81
2018-06-14T18:22:52.319Z,96900.80
2018-06-14T18:25:21.515Z,96901.89
2018-06-14T18:27:50.859Z,96908.77
2018-06-14T18:30:20.048Z,96913.13
2018-06-14T18:32:49.271Z,96921.09
2018-06-14T18:35:18.437Z,96919.25
2018-06-14T18:37:49.384Z,96917.89
2018-06-14T18:40:18.987Z,96919.13
2018-06-14T18:42:48.907Z,96925.04
2018-06-14T18:45:18.105Z,96920.30
2018-06-14T18:47:48.396Z,96914.13
2018-06-14T18:50:18.352Z,96920.16
2018-06-14T18:52:48.052Z,96927.38
2018-06-14T18:55:18.105Z,96929.95
2018-06-14T18:57:48.790Z,96931.52
2018-06-14T19:00:19.064Z,96930.80
2018-06-14T19:02:49.214Z,96935.53
2018-06-14T19:05:18.602Z,96936.30
2018-06-14T19:07:48.103Z,96940.70
2018-06-14T19:10:17.311Z,96948.28
2018-06-14T19:12:47.555Z,96949.69
2018-06-14T19:15:17.138Z,96948.75
2018-06-14T19:17:47.203Z,96955.70
2018-06-14T19:20:17.468Z,96951.26
2018-06-14T19:22:47.156Z,96955.91
2018-06-14T19:25:17.253Z,96955.19
2018-06-14T19:27:46.950Z,96952.81
2018-06-14T19:30:16.623Z,96953.88
2018-06-14T19:32:45.877Z,96956.31
2018-06-14T19:35:15.212Z,96963.45
2018-06-14T19:37:44.452Z,96967.20
2018-06-14T19:40:14.471Z,96969.96
2018-06-14T19:42:44.155Z,96968.37
2018-06-14T19:45:13.391Z,96968.91
2018-06-14T19:47:42.583Z,96975.63
2018-06-14T19:50:12.951Z,96973.78
2018-06-14T19:52:42.155Z,96979.16
2018-06-14T19:55:11.351Z,96988.17
2018-06-14T19:57:40.523Z,96991.91
2018-06-14T20:00:09.795Z,96981.20
2018-06-14T20:02:38.971Z,96994.94
2018-06-14T20:05:08.159Z,96991.00
2018-06-14T20:07:37.343Z,96989.44
2018-06-14T20:10:06.655Z,96998.61
2018-06-14T20:12:36.127Z,96995.38
2018-06-14T20:15:06.038Z,97002.17
2018-06-14T20:17:35.342Z,97008.39
2018-06-14T20:20:04.931Z,97003.86
2018-06-14T20:22:34.128Z,97006.47
2018-06-14T20:25:03.348Z,97006.77
2018-06-14T20:27:32.647Z,96998.94
2018-06-14T20:30:02.151Z,96997.72
2018-06-14T20:32:31.712Z,97007.83
2018-06-14T20:35:01.824Z,97006.28
2018-06-14T20:37:31.023Z,97008.61
2018-06-14T20:40:00.261Z,97013.80
2018-06-14T20:42:29.477Z,97009.44
2018-06-14T20:44:58.668Z,97009.17
2018-06-14T20:47:27.859Z,97012.73
2018-06-14T20:49:57.076Z,97008.78
2018-06-14T20:52:26.256Z,97008.78
2018-06-14T20:54:55.721Z,97010.72
2018-06-14T20:57:25.124Z,97012.78
2018-06-14T20:59:54.335Z,97011.58
2018-06-14T21:02:23.703Z,97011.00
2018-06-14T21:04:52.923Z,97005.91
2018-06-14T21:07:22.183Z,97010.69
2018-06-14T21:09:51.726Z,97005.91
2018-06-14T21:12:20.938Z,97014.29
2018-06-14T21:14:50.219Z,97014.56
2018-06-14T21:17:19.437Z,97010.52
2018-06-14T21:19:48.643Z,97008.17
2018-06-14T21:22:18.169Z,97012.28
2018-06-14T21:24:48.298Z,97010.16
2018-06-14T21:27:18.035Z,97011.16
2018-06-14T21:29:47.264Z,97017.28
2018-06-14T21:32:16.494Z,97014.56
2018-06-14T21:34:45.684Z,97016.23
2018-06-14T21:37:14.879Z,97020.87
2018-06-14T21:39:44.239Z,97026.28
2018-06-14T21:42:13.638Z,97025.20
2018-06-14T21:44:42.864Z,97016.60
2018-06-14T21:47:12.036Z,97013.36
2018-06-14T21:49:41.290Z,97018.31
2018-06-14T21:52:10.492Z,97016.42
2018-06-14T21:54:39.994Z,97026.78
2018-06-14T21:57:09.287Z,97031.38
2018-06-14T21:59:38.774Z,97032.15
2018-06-14T22:02:08.279Z,97025.93
2018-06-14T22:04:37.486Z,97017.28
2018-06-14T22:07:06.752Z,97018.91
2018-06-14T22:09:36.035Z,97026.56
2018-06-14T22:12:05.217Z,97021.23
2018-06-14T22:14:34.440Z,97022.34
2018-06-14T22:17:03.675Z,97020.72
2018-06-14T22:19:32.894Z,97026.36
2018-06-14T22:22:02.102Z,97019.88
2018-06-14T22:24:31.330Z,97019.64
2018-06-14T22:27:00.504Z,97020.92
2018-06-14T22:29:29.735Z,97019.80
2018-06-14T22:31:58.947Z,97025.20
2018-06-14T22:34:39.395Z,97034.39
2018-06-14T22:37:08.620Z,97031.64
2018-06-14T22:39:38.034Z,97036.89
2018-06-14T22:42:07.223Z,97045.94
2018-06-14T22:44:36.476Z,97039.67
2018-06-14T22:47:06.106Z,97041.61
2018-06-14T22:49:35.563Z,97038.95
2018-06-14T22:53:11.762Z,97040.64
2018-06-14T22:55:40.981Z,97033.11
2018-06-14T22:58:10.168Z,97031.27
2018-06-14T23:01:46.799Z,97027.78
2018-06-14T23:04:18.853Z,97018.88
2018-06-14T23:06:48.318Z,97013.39
2018-06-14T23:10:35.282Z,97007.52
2018-06-14T23:13:04.987Z,97009.27
2018-06-14T23:15:35.023Z,97001.66
2018-06-14T23:18:04.246Z,97006.83
2018-06-14T23:20:34.235Z,96999.53
2018-06-14T23:23:04.209Z,96993.54
2018-06-14T23:25:34.021Z,96995.80
2018-06-14T23:28:03.387Z,96989.27
2018-06-14T23:30:32.579Z,96993.31
2018-06-14T23:33:01.794Z,96991.11
2018-06-14T23:35:30.984Z,96993.85
2018-06-14T23:38:00.195Z,96994.36
2018-06-14T23:40:29.521Z,96991.37
2018-06-14T23:42:58.731Z,96987.55
2018-06-14T23:45:28.004Z,96986.73
2018-06-14T23:47:57.164Z,96982.77
2018-06-14T23:50:26.727Z,96988.41
2018-06-14T23:52:55.920Z,96983.04
2018-06-14T23:55:25.088Z,96988.94
2018-06-14T23:57:54.302Z,96987.14
